sensor_id;sensor_type;location;lat;lon;timestamp;P1;durP1;ratioP1;P2;durP2;ratioP2
70733;SDS011;58320;48.804;9.252;2022-08-16T00:00:32;6.67;;;3.10;;
70733;SDS011;58320;48.804;9.252;2022-08-16T00:03:01;5.32;;;2.78;;
70733;SDS011;58320;48.804;9.252;2022-08-16T00:05:28;6.40;;;3.30;;
70733;SDS011;58320;48.804;9.252;2022-08-16T00:07:55;6.00;;;3.10;;
70733;SDS011;58320;48.804;9.252;2022-08-16T00:10:23;5.32;;;3.20;;
70733;SDS011;58320;48.804;9.252;2022-08-16T00:12:52;5.63;;;3.20;;
70733;SDS011;58320;48.804;9.252;2022-08-16T00:15:21;7.87;;;2.80;;
70733;SDS011;58320;48.804;9.252;2022-08-16T00:17:59;5.27;;;3.07;;
70733;SDS011;58320;48.804;9.252;2022-08-16T00:20:25;4.63;;;2.60;;
70733;SDS011;58320;48.804;9.252;2022-08-16T00:22:51;6.68;;;3.28;;
70733;SDS011;58320;48.804;9.252;2022-08-16T00:25:19;4.72;;;3.08;;
70733;SDS011;58320;48.804;9.252;2022-08-16T00:27:47;4.30;;;2.72;;
70733;SDS011;58320;48.804;9.252;2022-08-16T00:30:14;6.97;;;3.55;;
70733;SDS011;58320;48.804;9.252;2022-08-16T00:32:45;6.07;;;3.40;;
70733;SDS011;58320;48.804;9.252;2022-08-16T00:35:16;6.13;;;3.22;;
70733;SDS011;58320;48.804;9.252;2022-08-16T00:37:46;5.10;;;3.10;;
70733;SDS011;58320;48.804;9.252;2022-08-16T00:40:14;5.75;;;2.88;;
70733;SDS011;58320;48.804;9.252;2022-08-16T00:42:48;6.15;;;3.10;;
70733;SDS011;58320;48.804;9.252;2022-08-16T00:45:24;6.07;;;3.00;;
70733;SDS011;58320;48.804;9.252;2022-08-16T00:48:05;6.53;;;3.30;;
70733;SDS011;58320;48.804;9.252;2022-08-16T00:50:35;5.38;;;2.92;;
70733;SDS011;58320;48.804;9.252;2022-08-16T00:53:04;7.20;;;3.65;;
70733;SDS011;58320;48.804;9.252;2022-08-16T00:55:34;5.50;;;3.58;;
70733;SDS011;58320;48.804;9.252;2022-08-16T00:58:03;5.18;;;3.13;;
70733;SDS011;58320;48.804;9.252;2022-08-16T01:00:30;6.03;;;3.60;;
70733;SDS011;58320;48.804;9.252;2022-08-16T01:02:58;5.00;;;3.40;;
70733;SDS011;58320;48.804;9.252;2022-08-16T01:05:29;5.55;;;3.53;;
70733;SDS011;58320;48.804;9.252;2022-08-16T01:07:55;7.45;;;3.92;;
70733;SDS011;58320;48.804;9.252;2022-08-16T01:10:23;5.85;;;3.33;;
70733;SDS011;58320;48.804;9.252;2022-08-16T01:12:50;6.18;;;3.47;;
70733;SDS011;58320;48.804;9.252;2022-08-16T01:15:16;5.50;;;3.30;;
70733;SDS011;58320;48.804;9.252;2022-08-16T01:17:43;7.82;;;3.70;;
70733;SDS011;58320;48.804;9.252;2022-08-16T01:20:11;6.35;;;4.05;;
70733;SDS011;58320;48.804;9.252;2022-08-16T01:25:19;7.38;;;4.10;;
70733;SDS011;58320;48.804;9.252;2022-08-16T01:27:51;7.80;;;3.70;;
70733;SDS011;58320;48.804;9.252;2022-08-16T01:32:56;6.38;;;3.70;;
70733;SDS011;58320;48.804;9.252;2022-08-16T01:38:05;7.68;;;3.88;;
70733;SDS011;58320;48.804;9.252;2022-08-16T01:40:57;6.75;;;3.70;;
70733;SDS011;58320;48.804;9.252;2022-08-16T01:43:28;6.23;;;3.40;;
70733;SDS011;58320;48.804;9.252;2022-08-16T01:45:56;6.23;;;4.00;;
70733;SDS011;58320;48.804;9.252;2022-08-16T01:48:26;7.10;;;3.53;;
70733;SDS011;58320;48.804;9.252;2022-08-16T01:50:55;7.18;;;3.90;;
70733;SDS011;58320;48.804;9.252;2022-08-16T01:53:23;7.28;;;4.03;;
70733;SDS011;58320;48.804;9.252;2022-08-16T01:55:50;5.43;;;3.50;;
70733;SDS011;58320;48.804;9.252;2022-08-16T01:58:16;7.30;;;3.67;;
70733;SDS011;58320;48.804;9.252;2022-08-16T02:00:44;5.03;;;3.37;;
70733;SDS011;58320;48.804;9.252;2022-08-16T02:06:51;6.65;;;3.38;;
70733;SDS011;58320;48.804;9.252;2022-08-16T02:09:18;5.28;;;3.30;;
70733;SDS011;58320;48.804;9.252;2022-08-16T02:11:48;6.20;;;3.72;;
70733;SDS011;58320;48.804;9.252;2022-08-16T02:14:18;5.53;;;3.50;;
70733;SDS011;58320;48.804;9.252;2022-08-16T02:16:50;5.90;;;4.00;;
70733;SDS011;58320;48.804;9.252;2022-08-16T02:19:16;7.80;;;4.10;;
70733;SDS011;58320;48.804;9.252;2022-08-16T02:21:51;8.32;;;3.90;;
70733;SDS011;58320;48.804;9.252;2022-08-16T02:24:19;6.00;;;3.67;;
70733;SDS011;58320;48.804;9.252;2022-08-16T02:26:46;7.45;;;4.25;;
70733;SDS011;58320;48.804;9.252;2022-08-16T02:29:13;5.23;;;3.60;;
70733;SDS011;58320;48.804;9.252;2022-08-16T02:31:42;6.67;;;3.70;;
70733;SDS011;58320;48.804;9.252;2022-08-16T02:34:09;7.93;;;4.00;;
70733;SDS011;58320;48.804;9.252;2022-08-16T02:36:36;7.93;;;4.38;;
70733;SDS011;58320;48.804;9.252;2022-08-16T02:39:02;8.52;;;3.88;;
70733;SDS011;58320;48.804;9.252;2022-08-16T02:41:31;7.07;;;3.72;;
70733;SDS011;58320;48.804;9.252;2022-08-16T02:43:57;6.00;;;3.60;;
70733;SDS011;58320;48.804;9.252;2022-08-16T02:46:24;6.33;;;4.17;;
70733;SDS011;58320;48.804;9.252;2022-08-16T02:48:50;7.40;;;4.03;;
70733;SDS011;58320;48.804;9.252;2022-08-16T02:51:16;7.28;;;4.15;;
70733;SDS011;58320;48.804;9.252;2022-08-16T02:53:44;7.00;;;3.80;;
70733;SDS011;58320;48.804;9.252;2022-08-16T02:56:12;7.65;;;4.45;;
70733;SDS011;58320;48.804;9.252;2022-08-16T02:58:41;5.97;;;3.60;;
70733;SDS011;58320;48.804;9.252;2022-08-16T03:01:13;6.75;;;3.78;;
70733;SDS011;58320;48.804;9.252;2022-08-16T03:03:48;6.65;;;4.18;;
70733;SDS011;58320;48.804;9.252;2022-08-16T03:06:14;8.30;;;4.28;;
70733;SDS011;58320;48.804;9.252;2022-08-16T03:08:43;8.40;;;4.13;;
70733;SDS011;58320;48.804;9.252;2022-08-16T03:11:09;7.20;;;3.83;;
70733;SDS011;58320;48.804;9.252;2022-08-16T03:13:37;6.80;;;4.13;;
70733;SDS011;58320;48.804;9.252;2022-08-16T03:16:04;6.35;;;4.20;;
70733;SDS011;58320;48.804;9.252;2022-08-16T03:18:31;6.28;;;4.07;;
70733;SDS011;58320;48.804;9.252;2022-08-16T03:20:57;6.50;;;3.80;;
70733;SDS011;58320;48.804;9.252;2022-08-16T03:23:26;6.22;;;4.15;;
70733;SDS011;58320;48.804;9.252;2022-08-16T03:25:51;7.67;;;3.73;;
70733;SDS011;58320;48.804;9.252;2022-08-16T03:28:18;6.80;;;4.03;;
70733;SDS011;58320;48.804;9.252;2022-08-16T03:30:44;7.57;;;4.57;;
70733;SDS011;58320;48.804;9.252;2022-08-16T03:33:11;6.65;;;3.88;;
70733;SDS011;58320;48.804;9.252;2022-08-16T03:35:37;6.93;;;4.00;;
70733;SDS011;58320;48.804;9.252;2022-08-16T03:38:06;5.20;;;3.40;;
70733;SDS011;58320;48.804;9.252;2022-08-16T03:40:35;6.43;;;4.20;;
70733;SDS011;58320;48.804;9.252;2022-08-16T03:43:06;8.00;;;4.10;;
70733;SDS011;58320;48.804;9.252;2022-08-16T03:45:43;6.28;;;4.10;;
70733;SDS011;58320;48.804;9.252;2022-08-16T03:48:09;8.00;;;4.25;;
70733;SDS011;58320;48.804;9.252;2022-08-16T03:50:36;5.97;;;3.90;;
70733;SDS011;58320;48.804;9.252;2022-08-16T03:53:02;6.17;;;4.00;;
70733;SDS011;58320;48.804;9.252;2022-08-16T03:55:30;6.07;;;4.18;;
70733;SDS011;58320;48.804;9.252;2022-08-16T03:57:56;6.25;;;4.43;;
70733;SDS011;58320;48.804;9.252;2022-08-16T04:00:23;6.78;;;4.60;;
70733;SDS011;58320;48.804;9.252;2022-08-16T04:02:56;8.03;;;4.30;;
70733;SDS011;58320;48.804;9.252;2022-08-16T04:05:30;8.13;;;4.70;;
70733;SDS011;58320;48.804;9.252;2022-08-16T04:07:59;7.55;;;4.60;;
70733;SDS011;58320;48.804;9.252;2022-08-16T04:10:27;11.18;;;5.88;;
70733;SDS011;58320;48.804;9.252;2022-08-16T04:12:53;8.85;;;5.30;;
70733;SDS011;58320;48.804;9.252;2022-08-16T04:15:19;8.73;;;4.97;;
70733;SDS011;58320;48.804;9.252;2022-08-16T04:17:45;8.35;;;5.10;;
70733;SDS011;58320;48.804;9.252;2022-08-16T04:20:11;8.37;;;5.10;;
70733;SDS011;58320;48.804;9.252;2022-08-16T04:22:39;9.38;;;4.65;;
70733;SDS011;58320;48.804;9.252;2022-08-16T04:25:07;7.05;;;4.40;;
70733;SDS011;58320;48.804;9.252;2022-08-16T04:27:35;8.50;;;4.60;;
70733;SDS011;58320;48.804;9.252;2022-08-16T04:30:05;7.47;;;4.30;;
70733;SDS011;58320;48.804;9.252;2022-08-16T04:32:36;8.97;;;4.27;;
70733;SDS011;58320;48.804;9.252;2022-08-16T04:35:04;6.83;;;4.20;;
70733;SDS011;58320;48.804;9.252;2022-08-16T04:37:33;8.00;;;4.10;;
70733;SDS011;58320;48.804;9.252;2022-08-16T04:39:58;6.35;;;4.10;;
70733;SDS011;58320;48.804;9.252;2022-08-16T04:42:24;7.88;;;4.47;;
70733;SDS011;58320;48.804;9.252;2022-08-16T04:44:51;6.32;;;4.10;;
70733;SDS011;58320;48.804;9.252;2022-08-16T04:47:19;7.70;;;4.43;;
70733;SDS011;58320;48.804;9.252;2022-08-16T04:49:45;8.85;;;4.80;;
70733;SDS011;58320;48.804;9.252;2022-08-16T04:52:11;8.45;;;4.35;;
70733;SDS011;58320;48.804;9.252;2022-08-16T04:54:37;6.97;;;4.30;;
70733;SDS011;58320;48.804;9.252;2022-08-16T04:57:04;7.00;;;4.40;;
70733;SDS011;58320;48.804;9.252;2022-08-16T04:59:30;6.23;;;4.20;;
70733;SDS011;58320;48.804;9.252;2022-08-16T05:01:56;7.05;;;4.20;;
70733;SDS011;58320;48.804;9.252;2022-08-16T05:04:22;6.25;;;4.45;;
70733;SDS011;58320;48.804;9.252;2022-08-16T05:06:48;9.50;;;4.67;;
70733;SDS011;58320;48.804;9.252;2022-08-16T05:09:15;6.93;;;4.70;;
70733;SDS011;58320;48.804;9.252;2022-08-16T05:11:43;6.28;;;4.15;;
70733;SDS011;58320;48.804;9.252;2022-08-16T05:14:09;6.50;;;4.10;;
70733;SDS011;58320;48.804;9.252;2022-08-16T05:16:35;8.43;;;4.20;;
70733;SDS011;58320;48.804;9.252;2022-08-16T05:19:02;7.95;;;4.28;;
70733;SDS011;58320;48.804;9.252;2022-08-16T05:21:30;8.73;;;4.07;;
70733;SDS011;58320;48.804;9.252;2022-08-16T05:23:58;6.67;;;4.20;;
70733;SDS011;58320;48.804;9.252;2022-08-16T05:26:24;5.50;;;4.10;;
70733;SDS011;58320;48.804;9.252;2022-08-16T05:28:52;8.45;;;4.15;;
70733;SDS011;58320;48.804;9.252;2022-08-16T05:31:19;7.55;;;4.35;;
70733;SDS011;58320;48.804;9.252;2022-08-16T05:33:45;7.00;;;4.50;;
70733;SDS011;58320;48.804;9.252;2022-08-16T05:36:12;6.32;;;4.00;;
70733;SDS011;58320;48.804;9.252;2022-08-16T05:38:37;6.90;;;3.80;;
70733;SDS011;58320;48.804;9.252;2022-08-16T05:41:03;6.60;;;3.95;;
70733;SDS011;58320;48.804;9.252;2022-08-16T05:43:30;6.93;;;4.23;;
70733;SDS011;58320;48.804;9.252;2022-08-16T05:45:56;7.18;;;3.80;;
70733;SDS011;58320;48.804;9.252;2022-08-16T05:48:24;9.35;;;4.43;;
70733;SDS011;58320;48.804;9.252;2022-08-16T05:50:50;6.68;;;4.30;;
70733;SDS011;58320;48.804;9.252;2022-08-16T05:53:16;6.43;;;3.90;;
70733;SDS011;58320;48.804;9.252;2022-08-16T05:55:42;5.95;;;4.40;;
70733;SDS011;58320;48.804;9.252;2022-08-16T05:58:08;9.80;;;4.40;;
70733;SDS011;58320;48.804;9.252;2022-08-16T06:00:34;7.33;;;4.00;;
70733;SDS011;58320;48.804;9.252;2022-08-16T06:03:00;6.95;;;4.40;;
70733;SDS011;58320;48.804;9.252;2022-08-16T06:05:26;6.47;;;4.30;;
70733;SDS011;58320;48.804;9.252;2022-08-16T06:07:52;6.68;;;4.20;;
70733;SDS011;58320;48.804;9.252;2022-08-16T06:10:18;6.80;;;4.17;;
70733;SDS011;58320;48.804;9.252;2022-08-16T06:12:44;7.00;;;4.00;;
70733;SDS011;58320;48.804;9.252;2022-08-16T06:15:11;6.05;;;3.88;;
70733;SDS011;58320;48.804;9.252;2022-08-16T06:17:42;5.40;;;3.80;;
70733;SDS011;58320;48.804;9.252;2022-08-16T06:20:14;6.72;;;4.47;;
70733;SDS011;58320;48.804;9.252;2022-08-16T06:22:45;7.00;;;4.10;;
70733;SDS011;58320;48.804;9.252;2022-08-16T06:25:11;6.43;;;4.03;;
70733;SDS011;58320;48.804;9.252;2022-08-16T06:27:38;6.70;;;4.10;;
70733;SDS011;58320;48.804;9.252;2022-08-16T06:30:08;6.53;;;4.00;;
70733;SDS011;58320;48.804;9.252;2022-08-16T06:32:37;7.95;;;4.00;;
70733;SDS011;58320;48.804;9.252;2022-08-16T06:35:04;5.97;;;3.95;;
70733;SDS011;58320;48.804;9.252;2022-08-16T06:37:30;6.50;;;4.00;;
70733;SDS011;58320;48.804;9.252;2022-08-16T06:39:56;7.20;;;4.57;;
70733;SDS011;58320;48.804;9.252;2022-08-16T06:42:22;6.20;;;4.20;;
70733;SDS011;58320;48.804;9.252;2022-08-16T06:44:49;7.28;;;4.30;;
70733;SDS011;58320;48.804;9.252;2022-08-16T06:47:15;7.88;;;3.97;;
70733;SDS011;58320;48.804;9.252;2022-08-16T06:49:41;6.60;;;4.50;;
70733;SDS011;58320;48.804;9.252;2022-08-16T06:52:07;7.93;;;4.40;;
70733;SDS011;58320;48.804;9.252;2022-08-16T06:54:33;7.45;;;3.70;;
70733;SDS011;58320;48.804;9.252;2022-08-16T06:56:59;7.63;;;4.15;;
70733;SDS011;58320;48.804;9.252;2022-08-16T06:59:26;7.10;;;4.53;;
70733;SDS011;58320;48.804;9.252;2022-08-16T07:01:52;6.60;;;4.40;;
70733;SDS011;58320;48.804;9.252;2022-08-16T07:04:18;7.33;;;4.37;;
70733;SDS011;58320;48.804;9.252;2022-08-16T07:06:44;5.83;;;4.00;;
70733;SDS011;58320;48.804;9.252;2022-08-16T07:09:13;6.43;;;4.32;;
70733;SDS011;58320;48.804;9.252;2022-08-16T07:11:39;9.48;;;4.30;;
70733;SDS011;58320;48.804;9.252;2022-08-16T07:14:06;6.90;;;4.20;;
70733;SDS011;58320;48.804;9.252;2022-08-16T07:16:32;6.93;;;4.55;;
70733;SDS011;58320;48.804;9.252;2022-08-16T07:18:58;5.80;;;4.17;;
70733;SDS011;58320;48.804;9.252;2022-08-16T07:21:24;5.80;;;4.37;;
70733;SDS011;58320;48.804;9.252;2022-08-16T07:23:50;8.35;;;4.90;;
70733;SDS011;58320;48.804;9.252;2022-08-16T07:26:22;5.93;;;4.25;;
70733;SDS011;58320;48.804;9.252;2022-08-16T07:28:50;8.43;;;4.60;;
70733;SDS011;58320;48.804;9.252;2022-08-16T07:31:17;6.82;;;4.13;;
70733;SDS011;58320;48.804;9.252;2022-08-16T07:33:44;6.93;;;4.67;;
70733;SDS011;58320;48.804;9.252;2022-08-16T07:36:10;9.53;;;4.60;;
70733;SDS011;58320;48.804;9.252;2022-08-16T07:38:37;7.60;;;4.57;;
70733;SDS011;58320;48.804;9.252;2022-08-16T07:41:03;6.30;;;4.15;;
70733;SDS011;58320;48.804;9.252;2022-08-16T07:43:30;6.85;;;4.13;;
70733;SDS011;58320;48.804;9.252;2022-08-16T07:45:56;6.40;;;4.50;;
70733;SDS011;58320;48.804;9.252;2022-08-16T07:48:23;7.85;;;4.40;;
70733;SDS011;58320;48.804;9.252;2022-08-16T07:50:50;8.75;;;4.50;;
70733;SDS011;58320;48.804;9.252;2022-08-16T07:53:17;8.73;;;4.10;;
70733;SDS011;58320;48.804;9.252;2022-08-16T07:55:43;8.00;;;4.53;;
70733;SDS011;58320;48.804;9.252;2022-08-16T07:58:09;6.18;;;4.25;;
70733;SDS011;58320;48.804;9.252;2022-08-16T08:00:35;7.88;;;4.05;;
70733;SDS011;58320;48.804;9.252;2022-08-16T08:03:01;6.55;;;4.38;;
70733;SDS011;58320;48.804;9.252;2022-08-16T08:05:28;6.95;;;4.50;;
70733;SDS011;58320;48.804;9.252;2022-08-16T08:07:54;7.18;;;4.57;;
70733;SDS011;58320;48.804;9.252;2022-08-16T08:10:21;6.50;;;4.28;;
70733;SDS011;58320;48.804;9.252;2022-08-16T08:12:49;5.78;;;4.38;;
70733;SDS011;58320;48.804;9.252;2022-08-16T08:15:18;8.00;;;4.33;;
70733;SDS011;58320;48.804;9.252;2022-08-16T08:17:45;10.47;;;5.13;;
70733;SDS011;58320;48.804;9.252;2022-08-16T08:20:16;7.00;;;4.97;;
70733;SDS011;58320;48.804;9.252;2022-08-16T08:22:45;5.40;;;4.13;;
70733;SDS011;58320;48.804;9.252;2022-08-16T08:25:13;8.63;;;4.88;;
70733;SDS011;58320;48.804;9.252;2022-08-16T08:27:40;7.53;;;4.70;;
70733;SDS011;58320;48.804;9.252;2022-08-16T08:30:07;9.15;;;4.30;;
70733;SDS011;58320;48.804;9.252;2022-08-16T08:32:34;9.07;;;4.70;;
70733;SDS011;58320;48.804;9.252;2022-08-16T08:35:01;7.65;;;4.80;;
70733;SDS011;58320;48.804;9.252;2022-08-16T08:37:28;7.45;;;4.60;;
70733;SDS011;58320;48.804;9.252;2022-08-16T08:39:55;6.90;;;4.50;;
70733;SDS011;58320;48.804;9.252;2022-08-16T08:42:21;6.40;;;4.80;;
70733;SDS011;58320;48.804;9.252;2022-08-16T08:44:47;8.00;;;4.50;;
70733;SDS011;58320;48.804;9.252;2022-08-16T08:47:12;7.57;;;4.70;;
70733;SDS011;58320;48.804;9.252;2022-08-16T08:49:38;8.10;;;4.27;;
70733;SDS011;58320;48.804;9.252;2022-08-16T08:52:04;5.60;;;4.43;;
70733;SDS011;58320;48.804;9.252;2022-08-16T08:54:30;7.13;;;4.53;;
70733;SDS011;58320;48.804;9.252;2022-08-16T08:56:57;5.88;;;4.05;;
70733;SDS011;58320;48.804;9.252;2022-08-16T08:59:23;7.25;;;4.93;;
70733;SDS011;58320;48.804;9.252;2022-08-16T09:01:49;5.43;;;3.90;;
70733;SDS011;58320;48.804;9.252;2022-08-16T09:04:16;5.93;;;4.50;;
70733;SDS011;58320;48.804;9.252;2022-08-16T09:06:43;9.20;;;4.38;;
70733;SDS011;58320;48.804;9.252;2022-08-16T09:09:09;6.97;;;4.22;;
70733;SDS011;58320;48.804;9.252;2022-08-16T09:11:35;7.32;;;4.43;;
70733;SDS011;58320;48.804;9.252;2022-08-16T09:14:02;7.47;;;4.88;;
70733;SDS011;58320;48.804;9.252;2022-08-16T09:16:29;6.50;;;4.55;;
70733;SDS011;58320;48.804;9.252;2022-08-16T09:18:57;5.75;;;4.30;;
70733;SDS011;58320;48.804;9.252;2022-08-16T09:21:24;5.97;;;4.70;;
70733;SDS011;58320;48.804;9.252;2022-08-16T09:23:50;7.00;;;4.80;;
70733;SDS011;58320;48.804;9.252;2022-08-16T09:26:16;7.40;;;4.87;;
70733;SDS011;58320;48.804;9.252;2022-08-16T09:28:42;7.03;;;4.28;;
70733;SDS011;58320;48.804;9.252;2022-08-16T09:31:10;9.20;;;4.80;;
70733;SDS011;58320;48.804;9.252;2022-08-16T09:33:38;6.97;;;4.15;;
70733;SDS011;58320;48.804;9.252;2022-08-16T09:36:05;6.70;;;4.53;;
70733;SDS011;58320;48.804;9.252;2022-08-16T09:38:33;6.97;;;4.40;;
70733;SDS011;58320;48.804;9.252;2022-08-16T09:41:01;9.73;;;4.90;;
70733;SDS011;58320;48.804;9.252;2022-08-16T09:43:30;8.07;;;4.88;;
70733;SDS011;58320;48.804;9.252;2022-08-16T09:45:57;6.37;;;4.70;;
70733;SDS011;58320;48.804;9.252;2022-08-16T09:48:24;8.00;;;4.60;;
70733;SDS011;58320;48.804;9.252;2022-08-16T09:50:50;5.40;;;4.60;;
70733;SDS011;58320;48.804;9.252;2022-08-16T09:53:17;5.88;;;5.03;;
70733;SDS011;58320;48.804;9.252;2022-08-16T09:55:48;7.07;;;5.18;;
70733;SDS011;58320;48.804;9.252;2022-08-16T09:58:18;8.20;;;5.15;;
70733;SDS011;58320;48.804;9.252;2022-08-16T10:00:50;6.40;;;4.43;;
70733;SDS011;58320;48.804;9.252;2022-08-16T10:03:17;6.63;;;4.90;;
70733;SDS011;58320;48.804;9.252;2022-08-16T10:05:44;7.35;;;4.95;;
70733;SDS011;58320;48.804;9.252;2022-08-16T10:08:11;7.30;;;4.90;;
70733;SDS011;58320;48.804;9.252;2022-08-16T10:10:38;6.30;;;4.90;;
70733;SDS011;58320;48.804;9.252;2022-08-16T10:13:27;8.40;;;4.93;;
70733;SDS011;58320;48.804;9.252;2022-08-16T10:15:54;8.23;;;4.70;;
70733;SDS011;58320;48.804;9.252;2022-08-16T10:18:27;6.00;;;4.70;;
70733;SDS011;58320;48.804;9.252;2022-08-16T10:20:55;5.72;;;4.50;;
70733;SDS011;58320;48.804;9.252;2022-08-16T10:23:25;6.65;;;4.63;;
70733;SDS011;58320;48.804;9.252;2022-08-16T10:25:53;6.70;;;4.30;;
70733;SDS011;58320;48.804;9.252;2022-08-16T10:28:19;5.75;;;4.15;;
70733;SDS011;58320;48.804;9.252;2022-08-16T10:30:45;6.57;;;4.43;;
70733;SDS011;58320;48.804;9.252;2022-08-16T10:33:11;5.68;;;4.60;;
70733;SDS011;58320;48.804;9.252;2022-08-16T10:35:38;7.82;;;4.43;;
70733;SDS011;58320;48.804;9.252;2022-08-16T10:38:06;6.00;;;4.30;;
70733;SDS011;58320;48.804;9.252;2022-08-16T10:40:32;7.28;;;4.38;;
70733;SDS011;58320;48.804;9.252;2022-08-16T10:42:58;5.43;;;4.00;;
70733;SDS011;58320;48.804;9.252;2022-08-16T10:45:24;6.80;;;4.50;;
70733;SDS011;58320;48.804;9.252;2022-08-16T10:47:52;5.90;;;4.43;;
70733;SDS011;58320;48.804;9.252;2022-08-16T10:50:19;5.30;;;4.30;;
70733;SDS011;58320;48.804;9.252;2022-08-16T10:52:45;7.38;;;4.40;;
70733;SDS011;58320;48.804;9.252;2022-08-16T10:55:12;7.82;;;4.68;;
70733;SDS011;58320;48.804;9.252;2022-08-16T10:57:38;5.57;;;4.35;;
70733;SDS011;58320;48.804;9.252;2022-08-16T11:00:09;7.35;;;4.72;;
70733;SDS011;58320;48.804;9.252;2022-08-16T11:02:39;5.03;;;4.20;;
70733;SDS011;58320;48.804;9.252;2022-08-16T11:05:07;8.27;;;4.60;;
70733;SDS011;58320;48.804;9.252;2022-08-16T11:07:40;5.30;;;3.97;;
70733;SDS011;58320;48.804;9.252;2022-08-16T11:10:10;7.17;;;5.07;;
70733;SDS011;58320;48.804;9.252;2022-08-16T11:12:40;5.25;;;4.07;;
70733;SDS011;58320;48.804;9.252;2022-08-16T11:15:05;7.03;;;4.80;;
70733;SDS011;58320;48.804;9.252;2022-08-16T11:17:31;7.18;;;5.18;;
70733;SDS011;58320;48.804;9.252;2022-08-16T11:19:57;7.85;;;4.85;;
70733;SDS011;58320;48.804;9.252;2022-08-16T11:22:23;4.83;;;4.00;;
70733;SDS011;58320;48.804;9.252;2022-08-16T11:24:50;6.78;;;4.57;;
70733;SDS011;58320;48.804;9.252;2022-08-16T11:27:17;6.25;;;4.45;;
70733;SDS011;58320;48.804;9.252;2022-08-16T11:29:45;5.63;;;4.13;;
70733;SDS011;58320;48.804;9.252;2022-08-16T11:32:12;4.93;;;3.88;;
70733;SDS011;58320;48.804;9.252;2022-08-16T11:34:38;6.40;;;4.53;;
70733;SDS011;58320;48.804;9.252;2022-08-16T11:37:04;5.45;;;4.10;;
70733;SDS011;58320;48.804;9.252;2022-08-16T11:39:30;6.38;;;4.10;;
70733;SDS011;58320;48.804;9.252;2022-08-16T11:41:56;8.03;;;4.97;;
70733;SDS011;58320;48.804;9.252;2022-08-16T11:44:23;5.47;;;4.10;;
70733;SDS011;58320;48.804;9.252;2022-08-16T11:46:49;5.45;;;4.25;;
70733;SDS011;58320;48.804;9.252;2022-08-16T11:49:15;6.68;;;4.30;;
70733;SDS011;58320;48.804;9.252;2022-08-16T11:51:42;6.13;;;4.10;;
70733;SDS011;58320;48.804;9.252;2022-08-16T11:54:12;6.30;;;3.80;;
70733;SDS011;58320;48.804;9.252;2022-08-16T11:56:38;7.78;;;4.32;;
70733;SDS011;58320;48.804;9.252;2022-08-16T11:59:05;7.38;;;4.47;;
70733;SDS011;58320;48.804;9.252;2022-08-16T12:01:31;5.72;;;4.10;;
70733;SDS011;58320;48.804;9.252;2022-08-16T12:03:57;5.97;;;4.03;;
70733;SDS011;58320;48.804;9.252;2022-08-16T12:06:23;7.45;;;4.43;;
70733;SDS011;58320;48.804;9.252;2022-08-16T12:08:50;7.03;;;4.18;;
70733;SDS011;58320;48.804;9.252;2022-08-16T12:11:19;6.35;;;3.95;;
70733;SDS011;58320;48.804;9.252;2022-08-16T12:13:45;4.82;;;4.07;;
70733;SDS011;58320;48.804;9.252;2022-08-16T12:16:11;5.33;;;4.00;;
70733;SDS011;58320;48.804;9.252;2022-08-16T12:18:38;4.93;;;3.45;;
70733;SDS011;58320;48.804;9.252;2022-08-16T12:21:05;9.43;;;4.20;;
70733;SDS011;58320;48.804;9.252;2022-08-16T12:23:31;5.90;;;4.13;;
70733;SDS011;58320;48.804;9.252;2022-08-16T12:25:57;5.65;;;3.75;;
70733;SDS011;58320;48.804;9.252;2022-08-16T12:28:23;4.70;;;3.92;;
70733;SDS011;58320;48.804;9.252;2022-08-16T12:30:49;4.97;;;3.90;;
70733;SDS011;58320;48.804;9.252;2022-08-16T12:33:16;4.77;;;4.00;;
70733;SDS011;58320;48.804;9.252;2022-08-16T12:35:44;6.20;;;4.50;;
70733;SDS011;58320;48.804;9.252;2022-08-16T12:38:12;4.93;;;4.18;;
70733;SDS011;58320;48.804;9.252;2022-08-16T12:40:40;5.88;;;3.90;;
70733;SDS011;58320;48.804;9.252;2022-08-16T12:43:09;4.78;;;3.88;;
70733;SDS011;58320;48.804;9.252;2022-08-16T12:45:47;6.40;;;3.85;;
70733;SDS011;58320;48.804;9.252;2022-08-16T12:48:17;6.38;;;4.22;;
70733;SDS011;58320;48.804;9.252;2022-08-16T12:51:07;6.15;;;4.10;;
70733;SDS011;58320;48.804;9.252;2022-08-16T12:53:36;6.07;;;4.38;;
70733;SDS011;58320;48.804;9.252;2022-08-16T12:56:03;4.90;;;3.67;;
70733;SDS011;58320;48.804;9.252;2022-08-16T12:58:30;5.67;;;3.60;;
70733;SDS011;58320;48.804;9.252;2022-08-16T13:00:56;4.80;;;3.70;;
70733;SDS011;58320;48.804;9.252;2022-08-16T13:03:23;4.60;;;3.80;;
70733;SDS011;58320;48.804;9.252;2022-08-16T13:05:49;4.82;;;3.78;;
70733;SDS011;58320;48.804;9.252;2022-08-16T13:08:16;5.93;;;4.30;;
70733;SDS011;58320;48.804;9.252;2022-08-16T13:10:44;4.93;;;4.00;;
70733;SDS011;58320;48.804;9.252;2022-08-16T13:13:13;6.50;;;3.88;;
70733;SDS011;58320;48.804;9.252;2022-08-16T13:15:49;5.30;;;4.10;;
70733;SDS011;58320;48.804;9.252;2022-08-16T13:18:21;4.38;;;3.45;;
70733;SDS011;58320;48.804;9.252;2022-08-16T13:20:49;5.38;;;3.65;;
70733;SDS011;58320;48.804;9.252;2022-08-16T13:23:15;4.50;;;3.50;;
70733;SDS011;58320;48.804;9.252;2022-08-16T13:25:43;5.78;;;4.15;;
70733;SDS011;58320;48.804;9.252;2022-08-16T13:28:12;6.15;;;4.10;;
70733;SDS011;58320;48.804;9.252;2022-08-16T13:30:40;5.00;;;3.70;;
70733;SDS011;58320;48.804;9.252;2022-08-16T13:33:11;6.93;;;3.70;;
70733;SDS011;58320;48.804;9.252;2022-08-16T13:35:44;5.33;;;3.90;;
70733;SDS011;58320;48.804;9.252;2022-08-16T13:38:13;6.70;;;4.07;;
70733;SDS011;58320;48.804;9.252;2022-08-16T13:40:40;6.53;;;4.00;;
70733;SDS011;58320;48.804;9.252;2022-08-16T13:43:06;5.53;;;3.78;;
70733;SDS011;58320;48.804;9.252;2022-08-16T13:45:33;4.93;;;3.30;;
70733;SDS011;58320;48.804;9.252;2022-08-16T13:47:59;5.95;;;3.92;;
70733;SDS011;58320;48.804;9.252;2022-08-16T13:50:26;5.53;;;3.70;;
70733;SDS011;58320;48.804;9.252;2022-08-16T13:52:53;5.20;;;4.00;;
70733;SDS011;58320;48.804;9.252;2022-08-16T13:55:20;7.40;;;3.80;;
70733;SDS011;58320;48.804;9.252;2022-08-16T13:57:46;5.03;;;3.80;;
70733;SDS011;58320;48.804;9.252;2022-08-16T14:00:13;6.25;;;3.80;;
70733;SDS011;58320;48.804;9.252;2022-08-16T14:02:40;5.00;;;3.75;;
70733;SDS011;58320;48.804;9.252;2022-08-16T14:05:07;5.55;;;3.53;;
70733;SDS011;58320;48.804;9.252;2022-08-16T14:07:34;5.25;;;3.80;;
70733;SDS011;58320;48.804;9.252;2022-08-16T14:10:03;4.82;;;3.55;;
70733;SDS011;58320;48.804;9.252;2022-08-16T14:12:35;6.78;;;4.00;;
70733;SDS011;58320;48.804;9.252;2022-08-16T14:15:02;5.05;;;3.80;;
70733;SDS011;58320;48.804;9.252;2022-08-16T14:17:31;4.95;;;3.72;;
70733;SDS011;58320;48.804;9.252;2022-08-16T14:19:57;4.80;;;4.30;;
70733;SDS011;58320;48.804;9.252;2022-08-16T14:22:25;6.63;;;3.70;;
70733;SDS011;58320;48.804;9.252;2022-08-16T14:24:52;6.28;;;3.78;;
70733;SDS011;58320;48.804;9.252;2022-08-16T14:27:23;5.40;;;4.55;;
70733;SDS011;58320;48.804;9.252;2022-08-16T14:29:52;6.85;;;3.95;;
70733;SDS011;58320;48.804;9.252;2022-08-16T14:32:21;6.63;;;3.78;;
70733;SDS011;58320;48.804;9.252;2022-08-16T14:34:49;7.35;;;4.35;;
70733;SDS011;58320;48.804;9.252;2022-08-16T14:37:16;5.60;;;4.07;;
70733;SDS011;58320;48.804;9.252;2022-08-16T14:39:42;5.70;;;4.00;;
70733;SDS011;58320;48.804;9.252;2022-08-16T14:42:12;5.13;;;3.50;;
70733;SDS011;58320;48.804;9.252;2022-08-16T14:44:42;5.43;;;4.38;;
70733;SDS011;58320;48.804;9.252;2022-08-16T14:47:09;5.72;;;4.20;;
70733;SDS011;58320;48.804;9.252;2022-08-16T14:49:35;4.65;;;3.92;;
70733;SDS011;58320;48.804;9.252;2022-08-16T14:52:12;5.57;;;3.65;;
70733;SDS011;58320;48.804;9.252;2022-08-16T14:54:43;4.15;;;3.55;;
70733;SDS011;58320;48.804;9.252;2022-08-16T14:57:11;5.10;;;4.10;;
70733;SDS011;58320;48.804;9.252;2022-08-16T14:59:38;5.75;;;4.00;;
70733;SDS011;58320;48.804;9.252;2022-08-16T15:02:15;5.07;;;4.00;;